createdAt,value
2018-01-30T00:00:44.167Z,45.27
2018-01-30T00:03:11.997Z,45.41
2018-01-30T00:05:40.017Z,45.33
2018-01-30T00:08:07.819Z,45.48
2018-01-30T00:10:36.127Z,45.50
2018-01-30T00:13:04.412Z,45.47
2018-01-30T00:15:32.350Z,45.54
2018-01-30T00:18:01.169Z,45.56
2018-01-30T00:20:29.107Z,45.57
2018-01-30T00:22:57.300Z,45.60
2018-01-30T00:25:25.964Z,45.76
2018-01-30T00:27:53.929Z,45.75
2018-01-30T00:30:22.118Z,45.77
2018-01-30T00:32:50.135Z,45.79
2018-01-30T00:35:17.850Z,45.76
2018-01-30T00:37:46.148Z,45.81
2018-01-30T00:40:14.955Z,45.81
2018-01-30T00:42:43.010Z,45.80
2018-01-30T00:45:11.286Z,45.80
2018-01-30T00:47:39.364Z,45.81
2018-01-30T00:50:07.139Z,45.82
2018-01-30T00:52:35.084Z,45.86
2018-01-30T00:55:03.161Z,45.82
2018-01-30T00:57:31.491Z,45.78
2018-01-30T00:59:59.555Z,45.83
2018-01-30T01:02:27.777Z,45.88
2018-01-30T01:04:55.964Z,45.93
2018-01-30T01:07:24.236Z,45.93
2018-01-30T01:09:52.428Z,45.86
2018-01-30T01:12:20.538Z,45.90
2018-01-30T01:14:48.550Z,45.93
2018-01-30T01:17:16.289Z,45.99
2018-01-30T01:19:44.456Z,46.02
2018-01-30T01:22:12.419Z,46.05
2018-01-30T01:24:40.612Z,46.08
2018-01-30T01:27:08.555Z,46.21
2018-01-30T01:29:36.746Z,46.19
2018-01-30T01:32:04.719Z,46.18
2018-01-30T01:34:33.008Z,46.26
2018-01-30T01:37:01.103Z,46.23
2018-01-30T01:39:29.066Z,46.13
2018-01-30T01:41:57.536Z,46.19
2018-01-30T01:44:25.595Z,46.26
2018-01-30T01:46:53.733Z,46.30
2018-01-30T01:49:32.695Z,46.23
2018-01-30T01:52:00.636Z,46.19
2018-01-30T01:54:28.798Z,46.17
2018-01-30T01:56:57.650Z,46.12
2018-01-30T01:59:25.404Z,46.13
2018-01-30T02:01:54.145Z,46.23
2018-01-30T02:04:22.209Z,46.34
2018-01-30T02:06:50.377Z,46.42
2018-01-30T02:09:18.593Z,46.30
2018-01-30T02:11:46.974Z,46.38
2018-01-30T02:14:15.124Z,46.37
2018-01-30T02:16:43.420Z,46.30
2018-01-30T02:19:11.654Z,46.30
2018-01-30T02:21:39.744Z,46.40
2018-01-30T02:24:07.712Z,46.37
2018-01-30T02:26:36.013Z,46.36
2018-01-30T02:29:04.142Z,46.37
2018-01-30T02:31:32.235Z,46.40
2018-01-30T02:34:00.397Z,46.27
2018-01-30T02:36:28.390Z,46.20
2018-01-30T02:38:56.367Z,46.27
2018-01-30T02:41:24.761Z,46.34
2018-01-30T02:43:52.524Z,46.30
2018-01-30T02:46:20.352Z,46.31
2018-01-30T02:48:48.116Z,46.38
2018-01-30T02:51:16.532Z,46.44
2018-01-30T02:53:44.675Z,46.33
2018-01-30T02:56:12.640Z,46.44
2018-01-30T02:58:40.504Z,46.46
2018-01-30T03:01:08.482Z,46.47
2018-01-30T03:03:36.768Z,46.36
2018-01-30T03:06:05.144Z,46.44
2018-01-30T03:08:33.193Z,46.56
2018-01-30T03:11:01.992Z,46.18
2018-01-30T03:13:30.283Z,46.29
2018-01-30T03:15:58.669Z,46.29
2018-01-30T03:18:27.038Z,46.16
2018-01-30T03:20:55.324Z,46.14
2018-01-30T03:23:23.270Z,46.35
2018-01-30T03:25:51.278Z,46.45
2018-01-30T03:28:19.037Z,46.54
2018-01-30T03:30:47.093Z,46.52
2018-01-30T03:33:15.350Z,46.58
2018-01-30T03:35:43.290Z,46.52
2018-01-30T03:38:11.627Z,46.56
2018-01-30T03:40:39.994Z,46.41
2018-01-30T03:43:08.144Z,46.41
2018-01-30T03:45:36.301Z,46.43
2018-01-30T03:48:04.212Z,46.57
2018-01-30T03:50:32.659Z,46.46
2018-01-30T03:53:00.954Z,46.39
2018-01-30T03:55:29.023Z,46.45
2018-01-30T03:57:57.153Z,46.41
2018-01-30T04:00:25.344Z,46.54
2018-01-30T04:02:54.236Z,46.56
2018-01-30T04:05:22.427Z,46.45
2018-01-30T04:07:50.166Z,46.39
2018-01-30T04:10:18.131Z,46.38
2018-01-30T04:12:45.836Z,46.30
2018-01-30T04:15:13.609Z,46.54
2018-01-30T04:17:41.977Z,46.58
2018-01-30T04:20:10.171Z,46.58
2018-01-30T04:22:38.416Z,46.60
2018-01-30T04:25:06.684Z,46.68
2018-01-30T04:27:34.742Z,46.62
2018-01-30T04:30:03.867Z,46.63
2018-01-30T04:32:31.998Z,46.53
2018-01-30T04:35:00.264Z,46.40
2018-01-30T04:37:28.393Z,46.42
2018-01-30T04:39:57.678Z,46.35
2018-01-30T04:42:25.456Z,46.27
2018-01-30T04:44:53.819Z,46.41
2018-01-30T04:47:22.197Z,46.44
2018-01-30T04:49:50.430Z,46.29
2018-01-30T04:52:18.366Z,46.36
2018-01-30T04:54:46.128Z,46.56
2018-01-30T04:57:13.895Z,46.68
2018-01-30T04:59:42.020Z,47.12
2018-01-30T05:02:10.083Z,47.42
2018-01-30T05:04:38.384Z,47.45
2018-01-30T05:07:06.457Z,47.51
2018-01-30T05:09:34.729Z,47.59
2018-01-30T05:12:02.770Z,47.63
2018-01-30T05:14:30.737Z,47.71
2018-01-30T05:16:58.926Z,47.69
2018-01-30T05:19:27.118Z,47.72
2018-01-30T05:21:55.357Z,47.53
2018-01-30T05:24:23.585Z,47.09
2018-01-30T05:26:51.945Z,46.80
2018-01-30T05:29:20.215Z,46.88
2018-01-30T05:31:48.345Z,46.87
2018-01-30T05:34:16.216Z,46.79
2018-01-30T05:36:44.287Z,46.95
2018-01-30T05:39:12.320Z,46.84
2018-01-30T05:41:40.122Z,46.74
2018-01-30T05:44:07.951Z,46.91
2018-01-30T05:46:36.207Z,47.06
2018-01-30T05:49:04.593Z,47.07
2018-01-30T05:51:32.368Z,46.95
2018-01-30T05:54:00.423Z,46.91
2018-01-30T05:56:28.487Z,46.53
2018-01-30T05:58:56.259Z,46.30
2018-01-30T06:01:24.325Z,46.28
2018-01-30T06:03:53.200Z,46.13
2018-01-30T06:06:21.139Z,45.66
2018-01-30T06:08:49.354Z,45.17
2018-01-30T06:11:17.228Z,44.78
2018-01-30T06:13:45.304Z,44.59
2018-01-30T06:16:13.251Z,43.98
2018-01-30T06:18:41.322Z,43.47
2018-01-30T06:21:09.204Z,42.34
2018-01-30T06:23:38.098Z,41.00
2018-01-30T06:26:06.010Z,40.37
2018-01-30T06:28:33.728Z,39.84
2018-01-30T06:31:01.495Z,39.27
2018-01-30T06:33:29.435Z,38.95
2018-01-30T06:35:57.328Z,38.65
2018-01-30T06:38:25.696Z,37.91
2018-01-30T06:40:53.781Z,38.12
2018-01-30T06:43:22.021Z,38.57
2018-01-30T06:45:50.063Z,38.75
2018-01-30T06:48:17.807Z,38.87
2018-01-30T06:50:46.063Z,39.00
2018-01-30T06:53:13.830Z,39.30
2018-01-30T06:55:41.587Z,39.44
2018-01-30T06:58:09.715Z,39.71
2018-01-30T07:00:37.908Z,39.79
2018-01-30T07:03:05.799Z,39.76
2018-01-30T07:05:34.177Z,39.79
2018-01-30T07:08:03.257Z,39.84
2018-01-30T07:10:31.497Z,39.93
2018-01-30T07:12:59.319Z,39.99
2018-01-30T07:15:28.008Z,40.07
2018-01-30T07:17:56.689Z,40.13
2018-01-30T07:20:24.757Z,39.99
2018-01-30T07:22:52.599Z,39.93
2018-01-30T07:25:20.641Z,39.91
2018-01-30T07:27:48.358Z,39.92
2018-01-30T07:30:16.122Z,39.94
2018-01-30T07:32:44.193Z,39.93
2018-01-30T07:35:12.004Z,39.95
2018-01-30T07:37:40.519Z,39.87
2018-01-30T07:40:08.460Z,39.84
2018-01-30T07:42:36.169Z,39.68
2018-01-30T07:45:04.262Z,39.58
2018-01-30T07:47:32.234Z,39.46
2018-01-30T07:50:00.076Z,39.32
2018-01-30T07:52:28.434Z,39.26
2018-01-30T07:54:56.812Z,39.19
2018-01-30T07:57:24.588Z,39.14
2018-01-30T07:59:52.615Z,39.02
2018-01-30T08:02:20.818Z,38.81
2018-01-30T08:04:49.431Z,38.64
2018-01-30T08:07:17.801Z,38.55
2018-01-30T08:09:45.878Z,38.53
2018-01-30T08:12:13.987Z,38.47
2018-01-30T08:14:42.005Z,38.44
2018-01-30T08:17:10.445Z,38.41
2018-01-30T08:19:40.305Z,38.34
2018-01-30T08:22:08.552Z,38.31
2018-01-30T08:24:36.446Z,38.28
2018-01-30T08:27:05.459Z,38.20
2018-01-30T08:29:33.528Z,38.22
2018-01-30T08:32:01.616Z,38.03
2018-01-30T08:34:29.647Z,37.76
2018-01-30T08:36:58.523Z,37.63
2018-01-30T08:39:26.448Z,37.65
2018-01-30T08:41:55.086Z,37.63
2018-01-30T08:44:23.045Z,37.63
2018-01-30T08:46:51.957Z,37.70
2018-01-30T08:49:20.073Z,37.73
2018-01-30T08:51:47.991Z,37.79
2018-01-30T08:54:15.749Z,37.87
2018-01-30T08:56:43.556Z,37.96
2018-01-30T08:59:11.590Z,37.94
2018-01-30T09:01:39.394Z,37.88
2018-01-30T09:04:07.479Z,38.00
2018-01-30T09:06:35.188Z,37.82
2018-01-30T09:09:02.955Z,37.89
2018-01-30T09:11:31.309Z,37.97
2018-01-30T09:13:59.396Z,38.04
2018-01-30T09:16:27.673Z,38.13
2018-01-30T09:18:55.640Z,38.25
2018-01-30T09:21:23.626Z,38.25
2018-01-30T09:23:51.448Z,38.32
2018-01-30T09:26:19.584Z,38.47
2018-01-30T09:28:47.246Z,38.47
2018-01-30T09:31:15.283Z,38.60
2018-01-30T09:33:43.060Z,38.62
2018-01-30T09:36:11.099Z,38.69
2018-01-30T09:38:39.070Z,38.78
2018-01-30T09:41:06.968Z,38.71
2018-01-30T09:43:34.819Z,38.71
2018-01-30T09:46:03.461Z,38.49
2018-01-30T09:48:31.760Z,38.45
2018-01-30T09:50:59.832Z,38.52
2018-01-30T09:53:28.085Z,38.22
2018-01-30T09:55:56.908Z,38.23
2018-01-30T09:58:26.691Z,38.26
2018-01-30T10:00:54.445Z,38.17
2018-01-30T10:03:22.496Z,38.22
2018-01-30T10:05:50.463Z,38.28
2018-01-30T10:08:18.188Z,38.35
2018-01-30T10:10:46.445Z,38.43
2018-01-30T10:13:14.384Z,38.55
2018-01-30T10:15:42.089Z,38.65
2018-01-30T10:18:09.847Z,38.62
2018-01-30T10:20:39.009Z,38.65
2018-01-30T10:23:06.973Z,38.75
2018-01-30T10:25:34.988Z,38.89
2018-01-30T10:28:02.829Z,38.79
2018-01-30T10:30:30.703Z,38.92
2018-01-30T10:32:59.860Z,38.85
2018-01-30T10:35:28.603Z,39.01
2018-01-30T10:37:56.584Z,39.17
2018-01-30T10:40:24.826Z,39.34
2018-01-30T10:42:52.810Z,39.15
2018-01-30T10:45:20.839Z,39.26
2018-01-30T10:47:48.564Z,39.50
2018-01-30T10:50:17.269Z,39.68
2018-01-30T10:52:45.435Z,39.67
2018-01-30T10:55:13.526Z,39.68
2018-01-30T10:57:41.433Z,39.72
2018-01-30T11:00:09.208Z,39.85
2018-01-30T11:02:39.117Z,39.96
2018-01-30T11:05:06.895Z,39.85
2018-01-30T11:07:35.031Z,39.89
2018-01-30T11:10:03.329Z,40.06
2018-01-30T11:12:31.140Z,40.12
2018-01-30T11:14:58.926Z,40.06
2018-01-30T11:17:27.096Z,39.99
2018-01-30T11:19:55.305Z,40.00
2018-01-30T11:22:23.454Z,39.84
2018-01-30T11:24:51.145Z,40.00
2018-01-30T11:27:19.258Z,40.10
2018-01-30T11:29:47.901Z,40.06
2018-01-30T11:32:16.016Z,39.94
2018-01-30T11:34:44.336Z,39.79
2018-01-30T11:37:12.298Z,39.80
2018-01-30T11:39:40.864Z,39.83
2018-01-30T11:42:08.562Z,39.89
2018-01-30T11:44:36.329Z,40.00
2018-01-30T11:47:04.097Z,40.08
2018-01-30T11:49:33.181Z,40.18
2018-01-30T11:52:01.412Z,40.27
2018-01-30T11:54:29.327Z,40.28
2018-01-30T11:56:57.346Z,40.35
2018-01-30T11:59:25.078Z,40.38
2018-01-30T12:01:52.819Z,40.19
2018-01-30T12:04:20.628Z,40.00
2018-01-30T12:06:48.707Z,40.02
2018-01-30T12:09:16.622Z,39.91
2018-01-30T12:11:46.937Z,39.99
2018-01-30T12:14:15.027Z,40.10
2018-01-30T12:16:43.398Z,40.15
2018-01-30T12:19:11.198Z,40.21
2018-01-30T12:21:39.401Z,40.09
2018-01-30T12:24:07.310Z,39.90
2018-01-30T12:26:35.183Z,39.99
2018-01-30T12:29:03.027Z,40.15
2018-01-30T12:31:30.904Z,40.21
2018-01-30T12:33:58.658Z,39.96
2018-01-30T12:36:26.731Z,40.06
2018-01-30T12:38:54.804Z,40.09
2018-01-30T12:41:22.677Z,40.07
2018-01-30T12:43:50.645Z,40.06
2018-01-30T12:46:19.075Z,40.09
2018-01-30T12:48:47.088Z,40.13
2018-01-30T12:51:15.041Z,40.18
2018-01-30T12:53:43.231Z,40.25
2018-01-30T12:56:11.601Z,40.33
2018-01-30T12:58:40.290Z,40.30
2018-01-30T13:01:08.406Z,40.07
2018-01-30T13:03:36.795Z,40.00
2018-01-30T13:06:04.962Z,40.06
2018-01-30T13:08:33.195Z,40.02
2018-01-30T13:11:02.402Z,39.94
2018-01-30T13:13:30.255Z,39.92
2018-01-30T13:15:58.943Z,39.70
2018-01-30T13:18:26.793Z,39.59
2018-01-30T13:20:54.789Z,39.67
2018-01-30T13:23:22.568Z,39.55
2018-01-30T13:25:50.311Z,39.62
2018-01-30T13:28:18.982Z,39.74
2018-01-30T13:30:46.754Z,39.82
2018-01-30T13:33:14.823Z,39.85
2018-01-30T13:35:42.937Z,39.92
2018-01-30T13:38:10.840Z,39.94
2018-01-30T13:40:39.037Z,39.86
2018-01-30T13:43:07.152Z,39.70
2018-01-30T13:45:34.869Z,39.54
2018-01-30T13:48:03.129Z,39.41
2018-01-30T13:50:31.209Z,39.34
2018-01-30T13:52:59.087Z,39.18
2018-01-30T13:55:26.937Z,39.05
2018-01-30T13:57:54.790Z,39.26
2018-01-30T14:00:22.672Z,39.48
2018-01-30T14:02:51.362Z,39.60
2018-01-30T14:05:19.139Z,39.61
2018-01-30T14:07:47.906Z,39.66
2018-01-30T14:10:16.676Z,39.82
2018-01-30T14:12:44.636Z,39.95
2018-01-30T14:15:12.909Z,40.06
2018-01-30T14:17:40.710Z,40.13
2018-01-30T14:20:09.581Z,40.22
2018-01-30T14:22:38.082Z,40.20
2018-01-30T14:25:07.075Z,39.97
2018-01-30T14:27:37.058Z,39.70
2018-01-30T14:30:05.155Z,39.73
2018-01-30T14:32:33.340Z,39.79
2018-01-30T14:35:01.126Z,39.89
2018-01-30T14:37:29.215Z,40.04
2018-01-30T14:39:57.829Z,40.12
2018-01-30T14:42:25.511Z,40.21
2018-01-30T14:44:53.844Z,40.28
2018-01-30T14:47:23.150Z,40.36
2018-01-30T14:49:52.041Z,40.43
2018-01-30T14:52:19.705Z,40.45
2018-01-30T14:54:48.376Z,40.48
2018-01-30T14:57:16.093Z,40.57
2018-01-30T14:59:44.295Z,40.64
2018-01-30T15:02:11.945Z,40.71
2018-01-30T15:04:39.614Z,40.81
2018-01-30T15:07:07.701Z,40.87
2018-01-30T15:09:36.646Z,40.94
2018-01-30T15:12:04.615Z,41.01
2018-01-30T15:14:33.528Z,41.07
2018-01-30T15:17:01.783Z,41.17
2018-01-30T15:19:29.736Z,41.25
2018-01-30T15:21:57.625Z,41.29
2018-01-30T15:24:25.396Z,41.33
2018-01-30T15:26:53.206Z,41.35
2018-01-30T15:29:21.359Z,41.38
2018-01-30T15:31:49.438Z,41.39
2018-01-30T15:34:18.156Z,41.42
2018-01-30T15:36:46.140Z,41.41
2018-01-30T15:39:14.285Z,41.48
2018-01-30T15:41:42.305Z,41.52
2018-01-30T15:44:10.453Z,41.52
2018-01-30T15:46:39.246Z,41.55
2018-01-30T15:49:07.633Z,41.58
2018-01-30T15:51:36.924Z,41.57
2018-01-30T15:54:04.755Z,41.53
2018-01-30T15:56:33.081Z,41.54
2018-01-30T15:59:00.872Z,41.42
2018-01-30T16:01:28.951Z,41.42
2018-01-30T16:03:57.082Z,41.43
2018-01-30T16:06:25.400Z,41.45
2018-01-30T16:08:53.421Z,41.54
2018-01-30T16:11:23.417Z,41.52
2018-01-30T16:13:51.417Z,41.51
2018-01-30T16:16:19.681Z,41.46
2018-01-30T16:18:47.871Z,41.50
2018-01-30T16:21:16.102Z,41.59
2018-01-30T16:23:44.204Z,41.70
2018-01-30T16:26:12.134Z,41.75
2018-01-30T16:28:40.457Z,41.80
2018-01-30T16:31:09.013Z,41.85
2018-01-30T16:33:37.056Z,41.83
2018-01-30T16:36:05.273Z,41.86
2018-01-30T16:38:33.114Z,41.88
2018-01-30T16:41:01.414Z,41.92
2018-01-30T16:43:29.544Z,41.95
2018-01-30T16:45:57.567Z,41.96
2018-01-30T16:48:25.638Z,41.88
2018-01-30T16:50:53.891Z,41.76
2018-01-30T16:53:24.556Z,41.57
2018-01-30T16:55:52.913Z,41.49
2018-01-30T16:58:21.033Z,41.31
2018-01-30T17:00:49.265Z,41.17
2018-01-30T17:03:17.621Z,41.25
2018-01-30T17:05:45.611Z,41.31
2018-01-30T17:08:14.507Z,41.31
2018-01-30T17:10:42.743Z,41.30
2018-01-30T17:13:10.832Z,41.30
2018-01-30T17:15:38.913Z,41.36
2018-01-30T17:18:06.943Z,41.44
2018-01-30T17:20:35.003Z,41.45
2018-01-30T17:23:03.233Z,41.49
2018-01-30T17:25:31.917Z,41.48
2018-01-30T17:28:00.783Z,41.37
2018-01-30T17:30:28.767Z,41.38
2018-01-30T17:32:57.049Z,41.56
2018-01-30T17:35:25.576Z,41.78
2018-01-30T17:37:53.663Z,41.73
2018-01-30T17:40:22.256Z,41.36
2018-01-30T17:42:50.360Z,41.12
2018-01-30T17:45:19.564Z,40.91
2018-01-30T17:47:48.136Z,40.87
2018-01-30T17:50:17.029Z,40.89
2018-01-30T17:52:45.160Z,40.96
2018-01-30T17:55:13.260Z,40.98
2018-01-30T17:57:41.148Z,41.01
2018-01-30T18:00:09.534Z,41.12
2018-01-30T18:02:38.297Z,41.24
2018-01-30T18:05:06.163Z,41.28
2018-01-30T18:07:35.267Z,41.35
2018-01-30T18:10:03.970Z,41.17
2018-01-30T18:12:32.735Z,40.98
2018-01-30T18:15:00.876Z,41.07
2018-01-30T18:17:29.614Z,41.17
2018-01-30T18:19:57.879Z,41.04
2018-01-30T18:22:25.897Z,40.98
2018-01-30T18:24:54.113Z,40.96
2018-01-30T18:27:22.053Z,40.94
2018-01-30T18:29:50.868Z,40.87
2018-01-30T18:32:19.353Z,40.67
2018-01-30T18:34:47.424Z,40.57
2018-01-30T18:37:15.505Z,40.63
2018-01-30T18:39:43.574Z,40.60
2018-01-30T18:42:12.097Z,40.56
2018-01-30T18:44:41.150Z,40.53
2018-01-30T18:47:09.207Z,40.44
2018-01-30T18:49:37.870Z,40.49
2018-01-30T18:52:06.760Z,40.49
2018-01-30T18:54:34.827Z,40.51
2018-01-30T18:57:02.993Z,40.56
2018-01-30T18:59:32.465Z,40.58
2018-01-30T19:02:01.436Z,40.61
2018-01-30T19:04:29.687Z,40.68
2018-01-30T19:06:57.770Z,40.65
2018-01-30T19:09:27.183Z,40.56
2018-01-30T19:11:55.562Z,40.57
2018-01-30T19:14:23.941Z,40.61
2018-01-30T19:16:53.230Z,40.58
2018-01-30T19:19:21.620Z,40.62
2018-01-30T19:21:50.120Z,40.67
2018-01-30T19:24:18.112Z,40.67
2018-01-30T19:26:47.059Z,40.70
2018-01-30T19:29:15.431Z,40.74
2018-01-30T19:31:43.499Z,40.74
2018-01-30T19:34:12.974Z,40.80
2018-01-30T19:36:42.102Z,40.86
2018-01-30T19:39:10.233Z,40.92
2018-01-30T19:41:38.433Z,41.02
2018-01-30T19:44:06.959Z,41.12
2018-01-30T19:46:36.729Z,41.13
2018-01-30T19:49:04.720Z,41.16
2018-01-30T19:51:32.437Z,41.18
2018-01-30T19:54:00.625Z,41.17
2018-01-30T19:56:29.123Z,41.20
2018-01-30T19:58:57.232Z,41.22
2018-01-30T20:01:25.459Z,41.24
2018-01-30T20:03:53.541Z,41.32
2018-01-30T20:06:21.477Z,41.35
2018-01-30T20:08:49.670Z,41.39
2018-01-30T20:11:17.646Z,41.38
2018-01-30T20:13:45.778Z,41.33
2018-01-30T20:16:13.716Z,41.33
2018-01-30T20:18:41.957Z,41.34
2018-01-30T20:21:10.323Z,41.42
2018-01-30T20:23:40.371Z,41.45
2018-01-30T20:26:09.178Z,41.47
2018-01-30T20:28:37.269Z,41.48
2018-01-30T20:31:06.730Z,41.44
2018-01-30T20:33:34.628Z,41.49
2018-01-30T20:36:03.345Z,41.54
2018-01-30T20:38:32.860Z,41.55
2018-01-30T20:41:01.347Z,41.59
2018-01-30T20:43:31.313Z,41.80
2018-01-30T20:45:59.328Z,41.98
2018-01-30T20:48:27.469Z,42.18
2018-01-30T20:50:55.595Z,42.23
2018-01-30T20:53:23.829Z,42.35
2018-01-30T20:55:51.742Z,42.39
2018-01-30T20:58:20.085Z,42.33
2018-01-30T21:00:48.074Z,42.40
2018-01-30T21:03:16.570Z,42.37
2018-01-30T21:05:44.379Z,42.36
2018-01-30T21:08:12.721Z,42.35
2018-01-30T21:10:41.082Z,42.39
2018-01-30T21:13:09.326Z,42.34
2018-01-30T21:15:37.392Z,42.38
2018-01-30T21:18:06.227Z,42.38
2018-01-30T21:20:34.907Z,42.38
2018-01-30T21:23:03.039Z,42.43
2018-01-30T21:25:31.108Z,42.48
2018-01-30T21:27:59.421Z,42.45
2018-01-30T21:30:27.562Z,42.40
2018-01-30T21:32:55.626Z,42.38
2018-01-30T21:35:24.605Z,42.38
2018-01-30T21:37:52.374Z,42.35
2018-01-30T21:40:20.394Z,42.30
2018-01-30T21:42:48.780Z,42.24
2018-01-30T21:45:16.856Z,42.21
2018-01-30T21:47:45.221Z,42.19
2018-01-30T21:50:15.847Z,42.21
2018-01-30T21:52:45.429Z,42.23
2018-01-30T21:55:13.621Z,42.20
2018-01-30T21:57:41.685Z,42.21
2018-01-30T22:00:09.959Z,42.23
2018-01-30T22:02:38.421Z,42.20
2018-01-30T22:05:06.540Z,42.17
2018-01-30T22:07:35.009Z,42.30
2018-01-30T22:10:02.887Z,42.49
2018-01-30T22:12:31.513Z,42.54
2018-01-30T22:14:59.418Z,42.52
2018-01-30T22:17:27.487Z,42.49
2018-01-30T22:19:56.303Z,42.62
2018-01-30T22:22:24.441Z,42.76
2018-01-30T22:24:52.516Z,42.66
2018-01-30T22:27:20.576Z,42.73
2018-01-30T22:29:48.680Z,42.67
2018-01-30T22:32:18.386Z,42.67
2018-01-30T22:34:47.246Z,42.84
2018-01-30T22:37:15.346Z,42.89
2018-01-30T22:39:43.510Z,42.86
2018-01-30T22:42:11.643Z,42.93
2018-01-30T22:44:39.757Z,42.82
